sensor_id;sensor_type;location;lat;lon;timestamp;P1;durP1;ratioP1;P2;durP2;ratioP2
30647;SDS011;17683;53.360;9.736;2023-08-17T00:00:15;5.97;;;1.77;;
30647;SDS011;17683;53.360;9.736;2023-08-17T00:02:43;4.35;;;1.77;;
30647;SDS011;17683;53.360;9.736;2023-08-17T00:05:09;4.45;;;1.85;;
30647;SDS011;17683;53.360;9.736;2023-08-17T00:07:35;5.13;;;1.83;;
30647;SDS011;17683;53.360;9.736;2023-08-17T00:10:01;4.28;;;1.80;;
30647;SDS011;17683;53.360;9.736;2023-08-17T00:12:28;6.00;;;1.75;;
30647;SDS011;17683;53.360;9.736;2023-08-17T00:14:54;5.47;;;1.77;;
30647;SDS011;17683;53.360;9.736;2023-08-17T00:17:19;7.13;;;2.13;;
30647;SDS011;17683;53.360;9.736;2023-08-17T00:19:46;6.13;;;2.15;;
30647;SDS011;17683;53.360;9.736;2023-08-17T00:22:12;7.75;;;2.55;;
30647;SDS011;17683;53.360;9.736;2023-08-17T00:24:38;7.32;;;2.00;;
30647;SDS011;17683;53.360;9.736;2023-08-17T00:27:05;11.82;;;1.88;;
30647;SDS011;17683;53.360;9.736;2023-08-17T00:29:31;4.30;;;1.55;;
30647;SDS011;17683;53.360;9.736;2023-08-17T00:31:57;11.63;;;2.88;;
30647;SDS011;17683;53.360;9.736;2023-08-17T00:34:22;6.47;;;2.35;;
30647;SDS011;17683;53.360;9.736;2023-08-17T00:36:48;12.10;;;1.90;;
30647;SDS011;17683;53.360;9.736;2023-08-17T00:39:14;6.95;;;2.15;;
30647;SDS011;17683;53.360;9.736;2023-08-17T00:41:40;5.82;;;2.03;;
30647;SDS011;17683;53.360;9.736;2023-08-17T00:44:05;4.78;;;1.90;;
30647;SDS011;17683;53.360;9.736;2023-08-17T00:46:31;3.83;;;2.03;;
30647;SDS011;17683;53.360;9.736;2023-08-17T00:48:57;3.80;;;1.88;;
30647;SDS011;17683;53.360;9.736;2023-08-17T00:51:23;3.95;;;2.13;;
30647;SDS011;17683;53.360;9.736;2023-08-17T00:53:52;5.65;;;2.33;;
30647;SDS011;17683;53.360;9.736;2023-08-17T00:56:22;6.28;;;2.25;;
30647;SDS011;17683;53.360;9.736;2023-08-17T00:58:48;3.85;;;2.08;;
30647;SDS011;17683;53.360;9.736;2023-08-17T01:01:14;4.05;;;2.45;;
30647;SDS011;17683;53.360;9.736;2023-08-17T01:03:40;6.30;;;2.00;;
30647;SDS011;17683;53.360;9.736;2023-08-17T01:06:07;8.07;;;2.65;;
30647;SDS011;17683;53.360;9.736;2023-08-17T01:08:33;5.15;;;1.98;;
30647;SDS011;17683;53.360;9.736;2023-08-17T01:11:02;8.75;;;2.00;;
30647;SDS011;17683;53.360;9.736;2023-08-17T01:16:53;3.08;;;1.92;;
30647;SDS011;17683;53.360;9.736;2023-08-17T01:19:28;5.90;;;2.42;;
30647;SDS011;17683;53.360;9.736;2023-08-17T01:21:54;8.10;;;2.25;;
30647;SDS011;17683;53.360;9.736;2023-08-17T01:24:25;3.85;;;2.15;;
30647;SDS011;17683;53.360;9.736;2023-08-17T01:26:51;6.20;;;2.17;;
30647;SDS011;17683;53.360;9.736;2023-08-17T01:29:17;8.05;;;2.28;;
30647;SDS011;17683;53.360;9.736;2023-08-17T01:35:01;7.15;;;2.17;;
30647;SDS011;17683;53.360;9.736;2023-08-17T01:37:49;2.90;;;1.73;;
30647;SDS011;17683;53.360;9.736;2023-08-17T01:40:17;6.05;;;2.15;;
30647;SDS011;17683;53.360;9.736;2023-08-17T01:42:44;6.88;;;2.13;;
30647;SDS011;17683;53.360;9.736;2023-08-17T01:45:10;10.32;;;2.30;;
30647;SDS011;17683;53.360;9.736;2023-08-17T01:47:36;5.07;;;2.38;;
30647;SDS011;17683;53.360;9.736;2023-08-17T01:50:02;8.32;;;2.33;;
30647;SDS011;17683;53.360;9.736;2023-08-17T01:52:28;10.73;;;2.58;;
30647;SDS011;17683;53.360;9.736;2023-08-17T01:54:54;10.75;;;2.38;;
30647;SDS011;17683;53.360;9.736;2023-08-17T01:57:19;3.60;;;1.70;;
30647;SDS011;17683;53.360;9.736;2023-08-17T01:59:45;5.18;;;2.17;;
30647;SDS011;17683;53.360;9.736;2023-08-17T02:02:11;4.15;;;1.55;;
30647;SDS011;17683;53.360;9.736;2023-08-17T02:04:39;3.90;;;2.05;;
30647;SDS011;17683;53.360;9.736;2023-08-17T02:07:05;7.97;;;2.53;;
30647;SDS011;17683;53.360;9.736;2023-08-17T02:09:31;6.22;;;2.17;;
30647;SDS011;17683;53.360;9.736;2023-08-17T02:11:56;3.25;;;1.73;;
30647;SDS011;17683;53.360;9.736;2023-08-17T02:14:22;6.30;;;2.00;;
30647;SDS011;17683;53.360;9.736;2023-08-17T02:16:48;8.63;;;2.45;;
30647;SDS011;17683;53.360;9.736;2023-08-17T02:19:14;6.82;;;1.85;;
30647;SDS011;17683;53.360;9.736;2023-08-17T02:21:39;5.82;;;2.15;;
30647;SDS011;17683;53.360;9.736;2023-08-17T02:24:05;6.75;;;1.75;;
30647;SDS011;17683;53.360;9.736;2023-08-17T02:26:31;6.35;;;1.90;;
30647;SDS011;17683;53.360;9.736;2023-08-17T02:28:57;12.25;;;2.58;;
30647;SDS011;17683;53.360;9.736;2023-08-17T02:31:23;5.65;;;1.63;;
30647;SDS011;17683;53.360;9.736;2023-08-17T02:33:48;2.95;;;1.90;;
30647;SDS011;17683;53.360;9.736;2023-08-17T02:36:14;6.57;;;2.17;;
30647;SDS011;17683;53.360;9.736;2023-08-17T02:38:40;3.72;;;2.00;;
30647;SDS011;17683;53.360;9.736;2023-08-17T02:41:05;4.25;;;1.90;;
30647;SDS011;17683;53.360;9.736;2023-08-17T02:43:31;10.45;;;2.08;;
30647;SDS011;17683;53.360;9.736;2023-08-17T02:45:56;4.60;;;1.92;;
30647;SDS011;17683;53.360;9.736;2023-08-17T02:48:24;5.82;;;1.90;;
30647;SDS011;17683;53.360;9.736;2023-08-17T02:50:50;9.02;;;2.00;;
30647;SDS011;17683;53.360;9.736;2023-08-17T02:53:15;4.70;;;2.00;;
30647;SDS011;17683;53.360;9.736;2023-08-17T02:55:41;12.13;;;2.88;;
30647;SDS011;17683;53.360;9.736;2023-08-17T02:58:07;5.60;;;2.13;;
30647;SDS011;17683;53.360;9.736;2023-08-17T03:00:33;5.82;;;2.13;;
30647;SDS011;17683;53.360;9.736;2023-08-17T03:02:58;7.75;;;2.20;;
30647;SDS011;17683;53.360;9.736;2023-08-17T03:05:24;8.45;;;2.20;;
30647;SDS011;17683;53.360;9.736;2023-08-17T03:07:50;9.40;;;2.30;;
30647;SDS011;17683;53.360;9.736;2023-08-17T03:10:15;8.68;;;2.38;;
30647;SDS011;17683;53.360;9.736;2023-08-17T03:12:41;5.78;;;1.80;;
30647;SDS011;17683;53.360;9.736;2023-08-17T03:15:08;8.32;;;2.05;;
30647;SDS011;17683;53.360;9.736;2023-08-17T03:17:33;6.43;;;2.17;;
30647;SDS011;17683;53.360;9.736;2023-08-17T03:19:59;8.45;;;2.63;;
30647;SDS011;17683;53.360;9.736;2023-08-17T03:22:25;8.23;;;2.40;;
30647;SDS011;17683;53.360;9.736;2023-08-17T03:24:51;5.32;;;2.20;;
30647;SDS011;17683;53.360;9.736;2023-08-17T03:27:16;7.28;;;2.22;;
30647;SDS011;17683;53.360;9.736;2023-08-17T03:29:42;4.35;;;1.88;;
30647;SDS011;17683;53.360;9.736;2023-08-17T03:32:08;8.82;;;2.40;;
30647;SDS011;17683;53.360;9.736;2023-08-17T03:34:33;6.82;;;1.98;;
30647;SDS011;17683;53.360;9.736;2023-08-17T03:36:59;4.72;;;2.45;;
30647;SDS011;17683;53.360;9.736;2023-08-17T03:39:25;4.30;;;2.75;;
30647;SDS011;17683;53.360;9.736;2023-08-17T03:41:50;4.55;;;2.10;;
30647;SDS011;17683;53.360;9.736;2023-08-17T03:44:16;5.28;;;1.90;;
30647;SDS011;17683;53.360;9.736;2023-08-17T03:46:42;8.82;;;1.98;;
30647;SDS011;17683;53.360;9.736;2023-08-17T03:49:08;5.60;;;2.40;;
30647;SDS011;17683;53.360;9.736;2023-08-17T03:51:34;3.33;;;1.70;;
30647;SDS011;17683;53.360;9.736;2023-08-17T03:53:59;4.30;;;1.92;;
30647;SDS011;17683;53.360;9.736;2023-08-17T03:56:25;4.65;;;2.40;;
30647;SDS011;17683;53.360;9.736;2023-08-17T03:58:52;4.82;;;2.40;;
30647;SDS011;17683;53.360;9.736;2023-08-17T04:01:18;6.13;;;2.00;;
30647;SDS011;17683;53.360;9.736;2023-08-17T04:03:44;4.68;;;1.70;;
30647;SDS011;17683;53.360;9.736;2023-08-17T04:06:09;5.75;;;2.00;;
30647;SDS011;17683;53.360;9.736;2023-08-17T04:08:36;4.13;;;2.00;;
30647;SDS011;17683;53.360;9.736;2023-08-17T04:11:02;3.25;;;2.05;;
30647;SDS011;17683;53.360;9.736;2023-08-17T04:13:28;3.88;;;2.00;;
30647;SDS011;17683;53.360;9.736;2023-08-17T04:15:54;3.75;;;1.90;;
30647;SDS011;17683;53.360;9.736;2023-08-17T04:18:20;12.63;;;2.40;;
30647;SDS011;17683;53.360;9.736;2023-08-17T04:20:46;5.32;;;2.85;;
30647;SDS011;17683;53.360;9.736;2023-08-17T04:23:11;7.40;;;2.15;;
30647;SDS011;17683;53.360;9.736;2023-08-17T04:25:37;4.82;;;1.88;;
30647;SDS011;17683;53.360;9.736;2023-08-17T04:28:03;3.17;;;1.80;;
30647;SDS011;17683;53.360;9.736;2023-08-17T04:30:29;7.28;;;2.50;;
30647;SDS011;17683;53.360;9.736;2023-08-17T04:32:55;4.65;;;1.80;;
30647;SDS011;17683;53.360;9.736;2023-08-17T04:35:21;3.42;;;1.70;;
30647;SDS011;17683;53.360;9.736;2023-08-17T04:37:46;5.40;;;1.92;;
30647;SDS011;17683;53.360;9.736;2023-08-17T04:40:13;3.65;;;1.98;;
30647;SDS011;17683;53.360;9.736;2023-08-17T04:42:39;8.93;;;1.90;;
30647;SDS011;17683;53.360;9.736;2023-08-17T04:45:05;6.90;;;2.53;;
30647;SDS011;17683;53.360;9.736;2023-08-17T04:47:31;4.35;;;2.08;;
30647;SDS011;17683;53.360;9.736;2023-08-17T04:49:57;5.45;;;2.22;;
30647;SDS011;17683;53.360;9.736;2023-08-17T04:52:22;7.57;;;2.30;;
30647;SDS011;17683;53.360;9.736;2023-08-17T04:54:48;8.45;;;2.42;;
30647;SDS011;17683;53.360;9.736;2023-08-17T04:57:14;5.93;;;2.10;;
30647;SDS011;17683;53.360;9.736;2023-08-17T04:59:40;5.35;;;1.90;;
30647;SDS011;17683;53.360;9.736;2023-08-17T05:02:06;4.90;;;2.00;;
30647;SDS011;17683;53.360;9.736;2023-08-17T05:04:31;4.25;;;1.83;;
30647;SDS011;17683;53.360;9.736;2023-08-17T05:06:57;5.88;;;1.88;;
30647;SDS011;17683;53.360;9.736;2023-08-17T05:09:23;4.15;;;2.03;;
30647;SDS011;17683;53.360;9.736;2023-08-17T05:11:48;8.55;;;1.98;;
30647;SDS011;17683;53.360;9.736;2023-08-17T05:14:14;2.05;;;1.63;;
30647;SDS011;17683;53.360;9.736;2023-08-17T05:16:40;3.15;;;1.65;;
30647;SDS011;17683;53.360;9.736;2023-08-17T05:19:05;5.68;;;2.20;;
30647;SDS011;17683;53.360;9.736;2023-08-17T05:21:31;7.47;;;2.13;;
30647;SDS011;17683;53.360;9.736;2023-08-17T05:23:57;8.00;;;2.50;;
30647;SDS011;17683;53.360;9.736;2023-08-17T05:26:23;5.00;;;2.03;;
30647;SDS011;17683;53.360;9.736;2023-08-17T05:28:49;6.00;;;2.40;;
30647;SDS011;17683;53.360;9.736;2023-08-17T05:31:15;4.53;;;1.75;;
30647;SDS011;17683;53.360;9.736;2023-08-17T05:33:40;7.10;;;2.65;;
30647;SDS011;17683;53.360;9.736;2023-08-17T05:36:06;12.05;;;3.90;;
30647;SDS011;17683;53.360;9.736;2023-08-17T05:38:32;5.03;;;2.20;;
30647;SDS011;17683;53.360;9.736;2023-08-17T05:40:58;5.40;;;2.22;;
30647;SDS011;17683;53.360;9.736;2023-08-17T05:43:25;6.25;;;2.00;;
30647;SDS011;17683;53.360;9.736;2023-08-17T05:45:51;8.85;;;3.00;;
30647;SDS011;17683;53.360;9.736;2023-08-17T05:48:20;11.15;;;2.90;;
30647;SDS011;17683;53.360;9.736;2023-08-17T05:50:46;7.68;;;2.85;;
30647;SDS011;17683;53.360;9.736;2023-08-17T05:53:12;5.68;;;2.63;;
30647;SDS011;17683;53.360;9.736;2023-08-17T05:55:38;6.13;;;2.30;;
30647;SDS011;17683;53.360;9.736;2023-08-17T05:58:04;10.20;;;2.63;;
30647;SDS011;17683;53.360;9.736;2023-08-17T06:00:29;11.73;;;3.78;;
30647;SDS011;17683;53.360;9.736;2023-08-17T06:02:55;10.43;;;2.42;;
30647;SDS011;17683;53.360;9.736;2023-08-17T06:05:26;7.70;;;2.72;;
30647;SDS011;17683;53.360;9.736;2023-08-17T06:07:54;8.20;;;2.55;;
30647;SDS011;17683;53.360;9.736;2023-08-17T06:10:20;6.07;;;2.45;;
30647;SDS011;17683;53.360;9.736;2023-08-17T06:12:50;6.30;;;2.28;;
30647;SDS011;17683;53.360;9.736;2023-08-17T06:15:19;6.85;;;2.53;;
30647;SDS011;17683;53.360;9.736;2023-08-17T06:17:45;5.28;;;2.60;;
30647;SDS011;17683;53.360;9.736;2023-08-17T06:20:11;5.47;;;2.13;;
30647;SDS011;17683;53.360;9.736;2023-08-17T06:22:38;4.78;;;2.10;;
30647;SDS011;17683;53.360;9.736;2023-08-17T06:25:04;5.45;;;2.30;;
30647;SDS011;17683;53.360;9.736;2023-08-17T06:27:31;6.38;;;2.75;;
30647;SDS011;17683;53.360;9.736;2023-08-17T06:29:57;8.85;;;2.50;;
30647;SDS011;17683;53.360;9.736;2023-08-17T06:32:22;7.65;;;2.63;;
30647;SDS011;17683;53.360;9.736;2023-08-17T06:34:48;4.85;;;1.80;;
30647;SDS011;17683;53.360;9.736;2023-08-17T06:37:14;8.73;;;2.70;;
30647;SDS011;17683;53.360;9.736;2023-08-17T06:39:40;3.38;;;2.38;;
30647;SDS011;17683;53.360;9.736;2023-08-17T06:42:05;7.00;;;2.60;;
30647;SDS011;17683;53.360;9.736;2023-08-17T06:44:31;6.55;;;3.13;;
30647;SDS011;17683;53.360;9.736;2023-08-17T06:46:57;8.00;;;2.65;;
30647;SDS011;17683;53.360;9.736;2023-08-17T06:49:24;9.82;;;3.50;;
30647;SDS011;17683;53.360;9.736;2023-08-17T06:51:50;5.65;;;2.65;;
30647;SDS011;17683;53.360;9.736;2023-08-17T06:54:15;6.65;;;2.92;;
30647;SDS011;17683;53.360;9.736;2023-08-17T06:56:41;7.65;;;2.45;;
30647;SDS011;17683;53.360;9.736;2023-08-17T06:59:07;10.18;;;3.28;;
30647;SDS011;17683;53.360;9.736;2023-08-17T07:01:32;8.73;;;2.92;;
30647;SDS011;17683;53.360;9.736;2023-08-17T07:03:58;5.53;;;2.90;;
30647;SDS011;17683;53.360;9.736;2023-08-17T07:06:24;5.57;;;2.33;;
30647;SDS011;17683;53.360;9.736;2023-08-17T07:08:50;5.68;;;2.08;;
30647;SDS011;17683;53.360;9.736;2023-08-17T07:11:17;3.30;;;2.50;;
30647;SDS011;17683;53.360;9.736;2023-08-17T07:13:43;3.72;;;2.10;;
30647;SDS011;17683;53.360;9.736;2023-08-17T07:16:09;4.22;;;2.47;;
30647;SDS011;17683;53.360;9.736;2023-08-17T07:18:35;6.10;;;2.45;;
30647;SDS011;17683;53.360;9.736;2023-08-17T07:21:00;8.82;;;2.67;;
30647;SDS011;17683;53.360;9.736;2023-08-17T07:23:26;3.38;;;2.13;;
30647;SDS011;17683;53.360;9.736;2023-08-17T07:25:52;5.03;;;2.30;;
30647;SDS011;17683;53.360;9.736;2023-08-17T07:28:17;5.60;;;2.20;;
30647;SDS011;17683;53.360;9.736;2023-08-17T07:30:43;5.78;;;2.05;;
30647;SDS011;17683;53.360;9.736;2023-08-17T07:33:09;5.10;;;2.10;;
30647;SDS011;17683;53.360;9.736;2023-08-17T07:35:34;4.97;;;2.50;;
30647;SDS011;17683;53.360;9.736;2023-08-17T07:38:00;3.63;;;1.83;;
30647;SDS011;17683;53.360;9.736;2023-08-17T07:40:26;4.80;;;1.98;;
30647;SDS011;17683;53.360;9.736;2023-08-17T07:42:52;3.72;;;1.95;;
30647;SDS011;17683;53.360;9.736;2023-08-17T07:45:18;6.47;;;2.10;;
30647;SDS011;17683;53.360;9.736;2023-08-17T07:47:43;7.25;;;2.40;;
30647;SDS011;17683;53.360;9.736;2023-08-17T07:50:09;3.38;;;2.28;;
30647;SDS011;17683;53.360;9.736;2023-08-17T07:52:35;3.55;;;1.60;;
30647;SDS011;17683;53.360;9.736;2023-08-17T07:55:00;2.28;;;1.67;;
30647;SDS011;17683;53.360;9.736;2023-08-17T07:57:26;4.32;;;2.15;;
30647;SDS011;17683;53.360;9.736;2023-08-17T07:59:52;4.40;;;1.60;;
30647;SDS011;17683;53.360;9.736;2023-08-17T08:02:18;8.60;;;2.67;;
30647;SDS011;17683;53.360;9.736;2023-08-17T08:04:44;4.18;;;1.90;;
30647;SDS011;17683;53.360;9.736;2023-08-17T08:07:10;3.60;;;1.95;;
30647;SDS011;17683;53.360;9.736;2023-08-17T08:09:35;2.63;;;1.67;;
30647;SDS011;17683;53.360;9.736;2023-08-17T08:12:01;5.40;;;2.10;;
30647;SDS011;17683;53.360;9.736;2023-08-17T08:14:28;2.67;;;1.65;;
30647;SDS011;17683;53.360;9.736;2023-08-17T08:16:54;9.63;;;2.28;;
30647;SDS011;17683;53.360;9.736;2023-08-17T08:19:20;5.90;;;2.05;;
30647;SDS011;17683;53.360;9.736;2023-08-17T08:21:45;5.40;;;2.28;;
30647;SDS011;17683;53.360;9.736;2023-08-17T08:24:11;4.53;;;2.10;;
30647;SDS011;17683;53.360;9.736;2023-08-17T08:26:37;6.70;;;1.95;;
30647;SDS011;17683;53.360;9.736;2023-08-17T08:29:02;5.57;;;2.10;;
30647;SDS011;17683;53.360;9.736;2023-08-17T08:31:28;2.38;;;1.80;;
30647;SDS011;17683;53.360;9.736;2023-08-17T08:33:54;6.00;;;2.25;;
30647;SDS011;17683;53.360;9.736;2023-08-17T08:36:20;4.40;;;2.00;;
30647;SDS011;17683;53.360;9.736;2023-08-17T08:38:46;4.32;;;2.05;;
30647;SDS011;17683;53.360;9.736;2023-08-17T08:41:12;3.70;;;2.00;;
30647;SDS011;17683;53.360;9.736;2023-08-17T08:43:38;3.60;;;2.42;;
30647;SDS011;17683;53.360;9.736;2023-08-17T08:46:04;2.38;;;1.77;;
30647;SDS011;17683;53.360;9.736;2023-08-17T08:48:30;3.13;;;1.98;;
30647;SDS011;17683;53.360;9.736;2023-08-17T08:50:58;3.38;;;1.92;;
30647;SDS011;17683;53.360;9.736;2023-08-17T08:53:31;3.15;;;1.80;;
30647;SDS011;17683;53.360;9.736;2023-08-17T08:56:02;2.47;;;1.67;;
30647;SDS011;17683;53.360;9.736;2023-08-17T08:58:29;5.22;;;2.13;;
30647;SDS011;17683;53.360;9.736;2023-08-17T09:00:57;3.63;;;2.20;;
30647;SDS011;17683;53.360;9.736;2023-08-17T09:03:23;5.13;;;2.08;;
30647;SDS011;17683;53.360;9.736;2023-08-17T09:05:51;4.47;;;1.83;;
30647;SDS011;17683;53.360;9.736;2023-08-17T09:08:25;3.00;;;1.60;;
30647;SDS011;17683;53.360;9.736;2023-08-17T09:10:54;2.50;;;2.03;;
30647;SDS011;17683;53.360;9.736;2023-08-17T09:13:20;3.78;;;1.88;;
30647;SDS011;17683;53.360;9.736;2023-08-17T09:15:45;3.85;;;2.13;;
30647;SDS011;17683;53.360;9.736;2023-08-17T09:18:11;4.78;;;2.20;;
30647;SDS011;17683;53.360;9.736;2023-08-17T09:23:10;5.20;;;2.20;;
30647;SDS011;17683;53.360;9.736;2023-08-17T09:25:41;4.80;;;1.80;;
30647;SDS011;17683;53.360;9.736;2023-08-17T09:28:08;3.00;;;1.48;;
30647;SDS011;17683;53.360;9.736;2023-08-17T09:30:51;3.85;;;1.52;;
30647;SDS011;17683;53.360;9.736;2023-08-17T09:33:18;2.38;;;1.77;;
30647;SDS011;17683;53.360;9.736;2023-08-17T09:35:48;2.75;;;1.80;;
30647;SDS011;17683;53.360;9.736;2023-08-17T09:38:15;3.72;;;1.33;;
30647;SDS011;17683;53.360;9.736;2023-08-17T09:40:41;2.15;;;1.95;;
30647;SDS011;17683;53.360;9.736;2023-08-17T09:43:08;3.63;;;1.70;;
30647;SDS011;17683;53.360;9.736;2023-08-17T09:45:35;2.83;;;1.80;;
30647;SDS011;17683;53.360;9.736;2023-08-17T09:48:02;4.65;;;2.25;;
30647;SDS011;17683;53.360;9.736;2023-08-17T09:50:28;4.30;;;1.90;;
30647;SDS011;17683;53.360;9.736;2023-08-17T09:52:54;3.20;;;2.17;;
30647;SDS011;17683;53.360;9.736;2023-08-17T09:55:23;7.63;;;1.92;;
30647;SDS011;17683;53.360;9.736;2023-08-17T09:57:49;4.45;;;1.70;;
30647;SDS011;17683;53.360;9.736;2023-08-17T10:00:16;5.35;;;2.05;;
30647;SDS011;17683;53.360;9.736;2023-08-17T10:02:47;2.58;;;2.08;;
30647;SDS011;17683;53.360;9.736;2023-08-17T10:05:15;4.28;;;1.77;;
30647;SDS011;17683;53.360;9.736;2023-08-17T10:07:43;2.60;;;1.50;;
30647;SDS011;17683;53.360;9.736;2023-08-17T10:10:16;5.05;;;1.98;;
30647;SDS011;17683;53.360;9.736;2023-08-17T10:13:00;4.00;;;2.03;;
30647;SDS011;17683;53.360;9.736;2023-08-17T10:16:19;3.13;;;1.50;;
30647;SDS011;17683;53.360;9.736;2023-08-17T10:21:37;3.15;;;1.95;;
30647;SDS011;17683;53.360;9.736;2023-08-17T10:24:08;2.75;;;1.67;;
30647;SDS011;17683;53.360;9.736;2023-08-17T10:26:35;4.78;;;1.83;;
30647;SDS011;17683;53.360;9.736;2023-08-17T10:29:01;4.88;;;1.88;;
30647;SDS011;17683;53.360;9.736;2023-08-17T10:31:28;3.97;;;1.85;;
30647;SDS011;17683;53.360;9.736;2023-08-17T10:33:55;3.05;;;1.80;;
30647;SDS011;17683;53.360;9.736;2023-08-17T10:36:22;7.13;;;2.25;;
30647;SDS011;17683;53.360;9.736;2023-08-17T10:39:17;2.30;;;1.83;;
30647;SDS011;17683;53.360;9.736;2023-08-17T10:41:47;2.97;;;2.10;;
30647;SDS011;17683;53.360;9.736;2023-08-17T10:44:14;4.13;;;2.08;;
30647;SDS011;17683;53.360;9.736;2023-08-17T10:46:42;4.80;;;2.10;;
30647;SDS011;17683;53.360;9.736;2023-08-17T10:49:25;4.47;;;2.15;;
30647;SDS011;17683;53.360;9.736;2023-08-17T10:52:04;4.80;;;1.83;;
30647;SDS011;17683;53.360;9.736;2023-08-17T10:54:41;3.97;;;1.60;;
30647;SDS011;17683;53.360;9.736;2023-08-17T11:02:56;2.22;;;1.80;;
30647;SDS011;17683;53.360;9.736;2023-08-17T11:08:32;2.13;;;1.23;;
30647;SDS011;17683;53.360;9.736;2023-08-17T11:13:24;3.63;;;1.52;;
30647;SDS011;17683;53.360;9.736;2023-08-17T11:15:52;1.73;;;1.60;;
30647;SDS011;17683;53.360;9.736;2023-08-17T11:18:18;3.47;;;1.75;;
30647;SDS011;17683;53.360;9.736;2023-08-17T11:20:43;2.30;;;1.50;;
30647;SDS011;17683;53.360;9.736;2023-08-17T11:23:09;2.65;;;1.20;;
30647;SDS011;17683;53.360;9.736;2023-08-17T11:25:36;5.03;;;1.73;;
30647;SDS011;17683;53.360;9.736;2023-08-17T11:28:03;3.78;;;1.67;;
30647;SDS011;17683;53.360;9.736;2023-08-17T11:30:31;1.65;;;1.55;;
30647;SDS011;17683;53.360;9.736;2023-08-17T11:32:59;1.30;;;1.20;;
30647;SDS011;17683;53.360;9.736;2023-08-17T11:35:25;3.38;;;1.10;;
30647;SDS011;17683;53.360;9.736;2023-08-17T11:37:51;2.60;;;1.48;;
30647;SDS011;17683;53.360;9.736;2023-08-17T11:40:17;1.38;;;1.00;;
30647;SDS011;17683;53.360;9.736;2023-08-17T11:42:43;3.05;;;1.20;;
30647;SDS011;17683;53.360;9.736;2023-08-17T11:45:11;1.60;;;1.25;;
30647;SDS011;17683;53.360;9.736;2023-08-17T11:47:37;2.13;;;1.45;;
30647;SDS011;17683;53.360;9.736;2023-08-17T11:50:04;1.70;;;1.30;;
30647;SDS011;17683;53.360;9.736;2023-08-17T11:52:31;1.42;;;1.17;;
30647;SDS011;17683;53.360;9.736;2023-08-17T11:55:07;17.48;;;1.58;;
30647;SDS011;17683;53.360;9.736;2023-08-17T11:57:35;1.60;;;0.95;;
30647;SDS011;17683;53.360;9.736;2023-08-17T12:00:02;1.52;;;1.00;;
30647;SDS011;17683;53.360;9.736;2023-08-17T12:02:31;2.08;;;1.02;;
30647;SDS011;17683;53.360;9.736;2023-08-17T12:04:58;1.33;;;0.95;;
30647;SDS011;17683;53.360;9.736;2023-08-17T12:07:31;1.33;;;1.23;;
30647;SDS011;17683;53.360;9.736;2023-08-17T12:09:57;4.00;;;1.40;;
30647;SDS011;17683;53.360;9.736;2023-08-17T12:12:22;1.67;;;1.40;;
30647;SDS011;17683;53.360;9.736;2023-08-17T12:14:48;4.10;;;1.15;;
30647;SDS011;17683;53.360;9.736;2023-08-17T12:17:15;1.50;;;1.17;;
30647;SDS011;17683;53.360;9.736;2023-08-17T12:19:42;1.40;;;1.02;;
30647;SDS011;17683;53.360;9.736;2023-08-17T12:22:08;1.55;;;1.40;;
30647;SDS011;17683;53.360;9.736;2023-08-17T12:24:34;3.38;;;1.42;;
30647;SDS011;17683;53.360;9.736;2023-08-17T12:27:03;1.98;;;1.52;;
30647;SDS011;17683;53.360;9.736;2023-08-17T12:29:30;2.40;;;1.27;;
30647;SDS011;17683;53.360;9.736;2023-08-17T12:31:56;5.35;;;1.10;;
30647;SDS011;17683;53.360;9.736;2023-08-17T12:34:23;1.65;;;1.27;;
30647;SDS011;17683;53.360;9.736;2023-08-17T12:36:49;1.02;;;0.88;;
30647;SDS011;17683;53.360;9.736;2023-08-17T12:39:15;1.55;;;1.10;;
30647;SDS011;17683;53.360;9.736;2023-08-17T12:41:41;2.10;;;1.67;;
30647;SDS011;17683;53.360;9.736;2023-08-17T12:44:08;1.92;;;1.02;;
30647;SDS011;17683;53.360;9.736;2023-08-17T12:46:37;1.65;;;1.25;;
30647;SDS011;17683;53.360;9.736;2023-08-17T12:49:03;3.63;;;1.30;;
30647;SDS011;17683;53.360;9.736;2023-08-17T12:51:29;2.67;;;1.20;;
30647;SDS011;17683;53.360;9.736;2023-08-17T12:53:54;1.95;;;1.30;;
30647;SDS011;17683;53.360;9.736;2023-08-17T12:56:20;1.40;;;1.17;;
30647;SDS011;17683;53.360;9.736;2023-08-17T12:58:46;2.58;;;1.52;;
30647;SDS011;17683;53.360;9.736;2023-08-17T13:01:12;1.55;;;1.00;;
30647;SDS011;17683;53.360;9.736;2023-08-17T13:03:39;3.08;;;1.90;;
30647;SDS011;17683;53.360;9.736;2023-08-17T13:06:04;2.55;;;1.00;;
30647;SDS011;17683;53.360;9.736;2023-08-17T13:08:30;3.45;;;1.30;;
30647;SDS011;17683;53.360;9.736;2023-08-17T13:10:56;2.28;;;1.13;;
30647;SDS011;17683;53.360;9.736;2023-08-17T13:13:22;2.53;;;1.10;;
30647;SDS011;17683;53.360;9.736;2023-08-17T13:15:47;1.30;;;1.17;;
30647;SDS011;17683;53.360;9.736;2023-08-17T13:18:13;3.10;;;1.15;;
30647;SDS011;17683;53.360;9.736;2023-08-17T13:20:39;3.65;;;1.38;;
30647;SDS011;17683;53.360;9.736;2023-08-17T13:23:05;2.28;;;1.40;;
30647;SDS011;17683;53.360;9.736;2023-08-17T13:25:31;2.22;;;1.20;;
30647;SDS011;17683;53.360;9.736;2023-08-17T13:27:57;3.72;;;1.27;;
30647;SDS011;17683;53.360;9.736;2023-08-17T13:30:23;2.10;;;1.50;;
30647;SDS011;17683;53.360;9.736;2023-08-17T13:32:49;2.42;;;1.20;;
30647;SDS011;17683;53.360;9.736;2023-08-17T13:35:15;2.03;;;1.13;;
30647;SDS011;17683;53.360;9.736;2023-08-17T13:37:41;1.63;;;1.52;;
30647;SDS011;17683;53.360;9.736;2023-08-17T13:40:07;4.13;;;1.60;;
30647;SDS011;17683;53.360;9.736;2023-08-17T13:42:33;2.75;;;1.27;;
30647;SDS011;17683;53.360;9.736;2023-08-17T13:44:59;1.35;;;1.25;;
30647;SDS011;17683;53.360;9.736;2023-08-17T13:47:25;2.42;;;1.25;;
30647;SDS011;17683;53.360;9.736;2023-08-17T13:49:51;3.13;;;1.40;;
30647;SDS011;17683;53.360;9.736;2023-08-17T13:52:17;5.15;;;1.42;;
30647;SDS011;17683;53.360;9.736;2023-08-17T13:54:43;4.03;;;1.65;;
30647;SDS011;17683;53.360;9.736;2023-08-17T13:57:10;2.58;;;1.50;;
30647;SDS011;17683;53.360;9.736;2023-08-17T13:59:36;2.13;;;1.50;;
30647;SDS011;17683;53.360;9.736;2023-08-17T14:02:02;2.05;;;1.30;;
30647;SDS011;17683;53.360;9.736;2023-08-17T14:04:27;2.55;;;1.20;;
30647;SDS011;17683;53.360;9.736;2023-08-17T14:06:53;1.60;;;1.10;;
30647;SDS011;17683;53.360;9.736;2023-08-17T14:09:19;2.85;;;1.42;;
30647;SDS011;17683;53.360;9.736;2023-08-17T14:11:44;2.95;;;1.40;;
30647;SDS011;17683;53.360;9.736;2023-08-17T14:14:10;3.92;;;1.45;;
30647;SDS011;17683;53.360;9.736;2023-08-17T14:16:36;1.60;;;1.25;;
30647;SDS011;17683;53.360;9.736;2023-08-17T14:19:02;2.03;;;1.33;;
30647;SDS011;17683;53.360;9.736;2023-08-17T14:21:28;3.05;;;1.30;;
30647;SDS011;17683;53.360;9.736;2023-08-17T14:23:53;2.83;;;1.52;;
30647;SDS011;17683;53.360;9.736;2023-08-17T14:26:19;6.18;;;1.58;;
30647;SDS011;17683;53.360;9.736;2023-08-17T14:28:45;2.88;;;1.60;;
30647;SDS011;17683;53.360;9.736;2023-08-17T14:31:10;2.53;;;1.52;;
30647;SDS011;17683;53.360;9.736;2023-08-17T14:33:42;3.80;;;1.30;;
30647;SDS011;17683;53.360;9.736;2023-08-17T14:36:09;4.00;;;1.58;;
30647;SDS011;17683;53.360;9.736;2023-08-17T14:38:35;2.75;;;1.48;;
30647;SDS011;17683;53.360;9.736;2023-08-17T14:41:01;2.17;;;1.35;;
30647;SDS011;17683;53.360;9.736;2023-08-17T14:43:29;2.25;;;1.42;;
30647;SDS011;17683;53.360;9.736;2023-08-17T14:45:55;2.60;;;1.50;;
30647;SDS011;17683;53.360;9.736;2023-08-17T14:48:21;4.75;;;1.92;;
30647;SDS011;17683;53.360;9.736;2023-08-17T14:50:47;3.45;;;1.77;;
30647;SDS011;17683;53.360;9.736;2023-08-17T14:53:12;3.45;;;1.40;;
30647;SDS011;17683;53.360;9.736;2023-08-17T14:55:38;3.97;;;1.70;;
30647;SDS011;17683;53.360;9.736;2023-08-17T14:58:04;4.03;;;2.17;;
30647;SDS011;17683;53.360;9.736;2023-08-17T15:00:30;2.78;;;1.88;;
30647;SDS011;17683;53.360;9.736;2023-08-17T15:02:56;3.65;;;1.77;;
30647;SDS011;17683;53.360;9.736;2023-08-17T15:05:23;3.35;;;1.65;;
30647;SDS011;17683;53.360;9.736;2023-08-17T15:07:49;4.63;;;2.35;;